sensor_id;sensor_type;location;lat;lon;timestamp;temperature;humidity
65836;SHT30;52595;51.608;7.216;2023-02-15T00:01:09;2.46;97.09
65836;SHT30;52595;51.608;7.216;2023-02-15T00:03:35;2.45;97.36
65836;SHT30;52595;51.608;7.216;2023-02-15T00:06:01;2.62;97.29
65836;SHT30;52595;51.608;7.216;2023-02-15T00:08:27;2.68;97.15
65836;SHT30;52595;51.608;7.216;2023-02-15T00:10:53;2.72;96.74
65836;SHT30;52595;51.608;7.216;2023-02-15T00:13:18;2.66;96.80
65836;SHT30;52595;51.608;7.216;2023-02-15T00:15:43;2.59;96.70
65836;SHT30;52595;51.608;7.216;2023-02-15T00:18:09;2.48;96.71
65836;SHT30;52595;51.608;7.216;2023-02-15T00:20:34;2.42;96.71
65836;SHT30;52595;51.608;7.216;2023-02-15T00:23:00;2.39;97.04
65836;SHT30;52595;51.608;7.216;2023-02-15T00:25:25;2.35;97.03
65836;SHT30;52595;51.608;7.216;2023-02-15T00:27:51;2.31;96.95
65836;SHT30;52595;51.608;7.216;2023-02-15T00:30:16;2.29;97.31
65836;SHT30;52595;51.608;7.216;2023-02-15T00:32:42;2.37;97.26
65836;SHT30;52595;51.608;7.216;2023-02-15T00:35:07;2.32;96.96
65836;SHT30;52595;51.608;7.216;2023-02-15T00:37:33;2.15;96.86
65836;SHT30;52595;51.608;7.216;2023-02-15T00:39:59;2.08;96.94
65836;SHT30;52595;51.608;7.216;2023-02-15T00:42:24;2.06;97.35
65836;SHT30;52595;51.608;7.216;2023-02-15T00:44:49;1.97;97.39
65836;SHT30;52595;51.608;7.216;2023-02-15T00:47:15;1.91;97.58
65836;SHT30;52595;51.608;7.216;2023-02-15T00:49:40;1.86;97.46
65836;SHT30;52595;51.608;7.216;2023-02-15T00:52:06;1.81;97.64
65836;SHT30;52595;51.608;7.216;2023-02-15T00:54:31;1.77;97.58
65836;SHT30;52595;51.608;7.216;2023-02-15T00:56:56;1.78;98.01
65836;SHT30;52595;51.608;7.216;2023-02-15T00:59:22;1.80;97.93
65836;SHT30;52595;51.608;7.216;2023-02-15T01:01:47;1.78;97.92
65836;SHT30;52595;51.608;7.216;2023-02-15T01:04:13;1.71;97.65
65836;SHT30;52595;51.608;7.216;2023-02-15T01:06:38;1.73;98.29
65836;SHT30;52595;51.608;7.216;2023-02-15T01:09:03;1.91;98.41
65836;SHT30;52595;51.608;7.216;2023-02-15T01:11:29;2.04;97.66
65836;SHT30;52595;51.608;7.216;2023-02-15T01:13:56;1.97;97.49
65836;SHT30;52595;51.608;7.216;2023-02-15T01:16:24;1.88;97.36
65836;SHT30;52595;51.608;7.216;2023-02-15T01:18:50;1.80;97.55
65836;SHT30;52595;51.608;7.216;2023-02-15T01:21:17;1.76;97.53
65836;SHT30;52595;51.608;7.216;2023-02-15T01:23:43;1.73;97.85
65836;SHT30;52595;51.608;7.216;2023-02-15T01:26:09;1.67;97.83
65836;SHT30;52595;51.608;7.216;2023-02-15T01:28:35;1.57;97.69
65836;SHT30;52595;51.608;7.216;2023-02-15T01:31:08;1.50;97.89
65836;SHT30;52595;51.608;7.216;2023-02-15T01:33:34;1.49;97.85
65836;SHT30;52595;51.608;7.216;2023-02-15T01:36:00;1.52;97.98
65836;SHT30;52595;51.608;7.216;2023-02-15T01:38:25;1.40;97.67
65836;SHT30;52595;51.608;7.216;2023-02-15T01:40:52;1.35;98.09
65836;SHT30;52595;51.608;7.216;2023-02-15T01:43:18;1.36;98.44
65836;SHT30;52595;51.608;7.216;2023-02-15T01:45:46;1.32;98.56
65836;SHT30;52595;51.608;7.216;2023-02-15T01:48:22;1.25;98.05
65836;SHT30;52595;51.608;7.216;2023-02-15T01:50:54;1.18;98.32
65836;SHT30;52595;51.608;7.216;2023-02-15T01:53:41;1.11;98.16
65836;SHT30;52595;51.608;7.216;2023-02-15T01:56:29;1.03;98.13
65836;SHT30;52595;51.608;7.216;2023-02-15T01:58:56;1.05;98.50
65836;SHT30;52595;51.608;7.216;2023-02-15T02:01:25;1.13;98.85
65836;SHT30;52595;51.608;7.216;2023-02-15T02:04:02;1.11;98.80
65836;SHT30;52595;51.608;7.216;2023-02-15T02:06:30;1.23;99.05
65836;SHT30;52595;51.608;7.216;2023-02-15T02:08:57;1.18;98.50
65836;SHT30;52595;51.608;7.216;2023-02-15T02:11:23;1.06;98.51
65836;SHT30;52595;51.608;7.216;2023-02-15T02:13:50;0.99;98.58
65836;SHT30;52595;51.608;7.216;2023-02-15T02:27:39;0.99;99.72
65836;SHT30;52595;51.608;7.216;2023-02-15T02:30:33;0.93;99.03
65836;SHT30;52595;51.608;7.216;2023-02-15T02:41:31;1.09;99.42
65836;SHT30;52595;51.608;7.216;2023-02-15T02:44:08;1.12;99.27
65836;SHT30;52595;51.608;7.216;2023-02-15T02:46:54;0.99;98.82
65836;SHT30;52595;51.608;7.216;2023-02-15T02:49:40;0.91;99.01
65836;SHT30;52595;51.608;7.216;2023-02-15T02:52:44;0.88;99.20
65836;SHT30;52595;51.608;7.216;2023-02-15T02:55:11;0.81;99.05
65836;SHT30;52595;51.608;7.216;2023-02-15T02:57:43;0.89;99.58
65836;SHT30;52595;51.608;7.216;2023-02-15T03:00:10;0.95;99.57
65836;SHT30;52595;51.608;7.216;2023-02-15T03:02:40;0.96;99.28
65836;SHT30;52595;51.608;7.216;2023-02-15T03:05:12;0.95;99.48
65836;SHT30;52595;51.608;7.216;2023-02-15T03:07:41;0.85;99.00
65836;SHT30;52595;51.608;7.216;2023-02-15T03:10:08;0.88;99.17
65836;SHT30;52595;51.608;7.216;2023-02-15T03:12:36;0.91;99.34
65836;SHT30;52595;51.608;7.216;2023-02-15T03:15:10;0.91;99.76
65836;SHT30;52595;51.608;7.216;2023-02-15T03:17:43;0.87;99.16
65836;SHT30;52595;51.608;7.216;2023-02-15T03:20:14;0.85;99.29
65836;SHT30;52595;51.608;7.216;2023-02-15T03:22:47;0.81;99.12
65836;SHT30;52595;51.608;7.216;2023-02-15T03:25:21;0.82;99.53
65836;SHT30;52595;51.608;7.216;2023-02-15T03:27:49;0.79;99.22
65836;SHT30;52595;51.608;7.216;2023-02-15T03:30:18;0.74;99.11
65836;SHT30;52595;51.608;7.216;2023-02-15T03:32:47;0.68;99.06
65836;SHT30;52595;51.608;7.216;2023-02-15T03:35:13;0.65;99.43
65836;SHT30;52595;51.608;7.216;2023-02-15T03:37:41;0.65;99.11
65836;SHT30;52595;51.608;7.216;2023-02-15T03:43:45;0.56;99.08
65836;SHT30;52595;51.608;7.216;2023-02-15T03:46:27;0.54;99.25
65836;SHT30;52595;51.608;7.216;2023-02-15T03:49:05;0.48;99.15
65836;SHT30;52595;51.608;7.216;2023-02-15T03:51:35;0.46;99.46
65836;SHT30;52595;51.608;7.216;2023-02-15T03:54:06;0.50;99.63
65836;SHT30;52595;51.608;7.216;2023-02-15T03:56:35;0.54;99.87
65836;SHT30;52595;51.608;7.216;2023-02-15T03:59:00;0.54;99.88
65836;SHT30;52595;51.608;7.216;2023-02-15T04:01:54;0.46;99.46
65836;SHT30;52595;51.608;7.216;2023-02-15T04:04:34;0.38;99.34
65836;SHT30;52595;51.608;7.216;2023-02-15T04:07:00;0.41;99.87
65836;SHT30;52595;51.608;7.216;2023-02-15T04:09:26;0.50;99.93
65836;SHT30;52595;51.608;7.216;2023-02-15T04:12:10;0.50;99.99
65836;SHT30;52595;51.608;7.216;2023-02-15T04:14:36;0.43;99.66
65836;SHT30;52595;51.608;7.216;2023-02-15T04:17:19;0.53;99.99
65836;SHT30;52595;51.608;7.216;2023-02-15T04:19:45;0.53;99.85
65836;SHT30;52595;51.608;7.216;2023-02-15T04:22:29;0.53;99.73
65836;SHT30;52595;51.608;7.216;2023-02-15T04:25:13;0.46;99.33
65836;SHT30;52595;51.608;7.216;2023-02-15T04:27:40;0.40;99.50
65836;SHT30;52595;51.608;7.216;2023-02-15T04:30:07;0.36;99.31
65836;SHT30;52595;51.608;7.216;2023-02-15T04:32:34;0.31;99.44
65836;SHT30;52595;51.608;7.216;2023-02-15T04:35:00;0.34;99.70
65836;SHT30;52595;51.608;7.216;2023-02-15T04:37:25;0.37;99.79
65836;SHT30;52595;51.608;7.216;2023-02-15T04:39:51;0.30;99.69
65836;SHT30;52595;51.608;7.216;2023-02-15T04:42:16;0.36;99.99
65836;SHT30;52595;51.608;7.216;2023-02-15T04:44:42;0.31;99.92
65836;SHT30;52595;51.608;7.216;2023-02-15T04:47:07;0.28;99.86
65836;SHT30;52595;51.608;7.216;2023-02-15T04:49:33;0.27;99.98
65836;SHT30;52595;51.608;7.216;2023-02-15T04:51:58;0.24;99.56
65836;SHT30;52595;51.608;7.216;2023-02-15T04:54:23;0.21;99.98
65836;SHT30;52595;51.608;7.216;2023-02-15T04:56:49;0.18;99.87
65836;SHT30;52595;51.608;7.216;2023-02-15T04:59:14;0.13;99.99
65836;SHT30;52595;51.608;7.216;2023-02-15T05:01:40;0.16;99.99
65836;SHT30;52595;51.608;7.216;2023-02-15T05:04:05;0.24;99.99
65836;SHT30;52595;51.608;7.216;2023-02-15T05:06:30;0.21;99.99
65836;SHT30;52595;51.608;7.216;2023-02-15T05:08:56;0.14;99.99
65836;SHT30;52595;51.608;7.216;2023-02-15T05:11:24;0.04;99.78
65836;SHT30;52595;51.608;7.216;2023-02-15T05:13:49;0.00;99.68
65836;SHT30;52595;51.608;7.216;2023-02-15T05:16:14;-0.04;99.85
65836;SHT30;52595;51.608;7.216;2023-02-15T05:18:40;-0.06;99.87
65836;SHT30;52595;51.608;7.216;2023-02-15T05:21:05;0.13;99.99
65836;SHT30;52595;51.608;7.216;2023-02-15T05:23:31;0.23;99.99
65836;SHT30;52595;51.608;7.216;2023-02-15T05:25:56;0.11;99.99
65836;SHT30;52595;51.608;7.216;2023-02-15T05:28:40;0.03;99.87
65836;SHT30;52595;51.608;7.216;2023-02-15T05:31:08;-0.03;99.95
65836;SHT30;52595;51.608;7.216;2023-02-15T05:33:35;-0.08;99.75
65836;SHT30;52595;51.608;7.216;2023-02-15T05:36:01;-0.14;99.91
65836;SHT30;52595;51.608;7.216;2023-02-15T05:38:26;-0.15;99.90
65836;SHT30;52595;51.608;7.216;2023-02-15T05:40:52;-0.21;99.79
65836;SHT30;52595;51.608;7.216;2023-02-15T05:43:17;-0.19;99.99
65836;SHT30;52595;51.608;7.216;2023-02-15T05:45:51;-0.14;99.99
65836;SHT30;52595;51.608;7.216;2023-02-15T05:48:17;-0.14;99.99
65836;SHT30;52595;51.608;7.216;2023-02-15T05:50:43;-0.11;99.99
65836;SHT30;52595;51.608;7.216;2023-02-15T05:53:09;-0.14;99.99
65836;SHT30;52595;51.608;7.216;2023-02-15T05:55:38;-0.15;99.99
65836;SHT30;52595;51.608;7.216;2023-02-15T05:58:04;-0.15;99.99
65836;SHT30;52595;51.608;7.216;2023-02-15T06:00:29;-0.15;99.99
65836;SHT30;52595;51.608;7.216;2023-02-15T06:02:54;-0.18;99.99
65836;SHT30;52595;51.608;7.216;2023-02-15T06:05:20;-0.27;99.99
65836;SHT30;52595;51.608;7.216;2023-02-15T06:07:45;-0.32;99.99
65836;SHT30;52595;51.608;7.216;2023-02-15T06:10:11;-0.34;99.99
65836;SHT30;52595;51.608;7.216;2023-02-15T06:12:36;-0.34;99.99
65836;SHT30;52595;51.608;7.216;2023-02-15T06:15:03;-0.28;99.99
65836;SHT30;52595;51.608;7.216;2023-02-15T06:17:28;-0.27;99.99
65836;SHT30;52595;51.608;7.216;2023-02-15T06:19:54;-0.24;99.99
65836;SHT30;52595;51.608;7.216;2023-02-15T06:22:19;-0.24;99.99
65836;SHT30;52595;51.608;7.216;2023-02-15T06:24:46;-0.25;99.99
65836;SHT30;52595;51.608;7.216;2023-02-15T06:27:11;-0.25;99.99
65836;SHT30;52595;51.608;7.216;2023-02-15T06:29:37;-0.21;99.99
65836;SHT30;52595;51.608;7.216;2023-02-15T06:32:02;-0.22;99.99
65836;SHT30;52595;51.608;7.216;2023-02-15T06:34:28;-0.19;99.99
65836;SHT30;52595;51.608;7.216;2023-02-15T06:36:53;-0.18;99.99
65836;SHT30;52595;51.608;7.216;2023-02-15T06:39:18;-0.25;99.99
65836;SHT30;52595;51.608;7.216;2023-02-15T06:41:44;-0.19;99.99
65836;SHT30;52595;51.608;7.216;2023-02-15T06:44:09;-0.14;99.99
65836;SHT30;52595;51.608;7.216;2023-02-15T06:46:35;-0.07;99.99
65836;SHT30;52595;51.608;7.216;2023-02-15T06:49:00;-0.10;99.99
65836;SHT30;52595;51.608;7.216;2023-02-15T06:51:25;-0.07;99.99
65836;SHT30;52595;51.608;7.216;2023-02-15T06:53:51;-0.07;99.99
65836;SHT30;52595;51.608;7.216;2023-02-15T06:56:16;-0.10;99.99
65836;SHT30;52595;51.608;7.216;2023-02-15T06:58:42;-0.08;99.99
65836;SHT30;52595;51.608;7.216;2023-02-15T07:01:09;-0.07;99.99
65836;SHT30;52595;51.608;7.216;2023-02-15T07:03:35;-0.07;99.99
65836;SHT30;52595;51.608;7.216;2023-02-15T07:06:02;-0.06;99.99
65836;SHT30;52595;51.608;7.216;2023-02-15T07:08:29;0.11;99.99
65836;SHT30;52595;51.608;7.216;2023-02-15T07:10:55;0.27;99.99
65836;SHT30;52595;51.608;7.216;2023-02-15T07:13:41;0.27;99.99
65836;SHT30;52595;51.608;7.216;2023-02-15T07:16:08;0.28;99.99
65836;SHT30;52595;51.608;7.216;2023-02-15T07:18:33;0.36;99.99
65836;SHT30;52595;51.608;7.216;2023-02-15T07:20:58;0.34;99.99
65836;SHT30;52595;51.608;7.216;2023-02-15T07:23:24;0.40;99.99
65836;SHT30;52595;51.608;7.216;2023-02-15T07:25:59;0.47;99.99
65836;SHT30;52595;51.608;7.216;2023-02-15T07:28:24;0.43;99.99
65836;SHT30;52595;51.608;7.216;2023-02-15T07:30:50;0.46;99.99
65836;SHT30;52595;51.608;7.216;2023-02-15T07:33:15;0.44;99.99
65836;SHT30;52595;51.608;7.216;2023-02-15T07:35:57;0.50;99.99
65836;SHT30;52595;51.608;7.216;2023-02-15T07:38:23;0.50;99.99
65836;SHT30;52595;51.608;7.216;2023-02-15T07:40:49;0.62;99.99
65836;SHT30;52595;51.608;7.216;2023-02-15T07:43:14;0.81;99.99
65836;SHT30;52595;51.608;7.216;2023-02-15T07:45:40;0.84;99.99
65836;SHT30;52595;51.608;7.216;2023-02-15T07:48:06;0.85;99.99
65836;SHT30;52595;51.608;7.216;2023-02-15T07:50:31;0.91;99.99
65836;SHT30;52595;51.608;7.216;2023-02-15T07:52:57;1.01;99.99
65836;SHT30;52595;51.608;7.216;2023-02-15T07:55:23;1.11;99.99
65836;SHT30;52595;51.608;7.216;2023-02-15T07:57:51;1.21;99.99
65836;SHT30;52595;51.608;7.216;2023-02-15T08:00:18;1.35;99.99
65836;SHT30;52595;51.608;7.216;2023-02-15T08:02:49;1.50;99.99
65836;SHT30;52595;51.608;7.216;2023-02-15T08:05:34;1.64;99.99
65836;SHT30;52595;51.608;7.216;2023-02-15T08:07:59;1.81;99.99
65836;SHT30;52595;51.608;7.216;2023-02-15T08:10:25;1.97;99.98
65836;SHT30;52595;51.608;7.216;2023-02-15T08:13:10;2.10;99.58
65836;SHT30;52595;51.608;7.216;2023-02-15T08:15:35;2.15;99.37
65836;SHT30;52595;51.608;7.216;2023-02-15T08:18:01;2.25;99.24
65836;SHT30;52595;51.608;7.216;2023-02-15T08:20:26;2.34;98.83
65836;SHT30;52595;51.608;7.216;2023-02-15T08:22:52;2.46;98.26
65836;SHT30;52595;51.608;7.216;2023-02-15T08:25:17;2.61;97.20
65836;SHT30;52595;51.608;7.216;2023-02-15T08:27:42;2.75;97.12
65836;SHT30;52595;51.608;7.216;2023-02-15T08:30:08;2.88;95.80
65836;SHT30;52595;51.608;7.216;2023-02-15T08:32:34;3.02;94.87
65836;SHT30;52595;51.608;7.216;2023-02-15T08:34:59;3.00;95.38
65836;SHT30;52595;51.608;7.216;2023-02-15T08:37:24;3.00;96.15
65836;SHT30;52595;51.608;7.216;2023-02-15T08:39:51;3.12;95.97
65836;SHT30;52595;51.608;7.216;2023-02-15T08:42:17;3.34;94.61
65836;SHT30;52595;51.608;7.216;2023-02-15T08:44:42;3.57;92.98
65836;SHT30;52595;51.608;7.216;2023-02-15T08:47:07;3.74;92.12
65836;SHT30;52595;51.608;7.216;2023-02-15T08:49:33;3.74;92.38
65836;SHT30;52595;51.608;7.216;2023-02-15T08:51:58;3.79;91.89
65836;SHT30;52595;51.608;7.216;2023-02-15T08:54:24;3.87;92.27
65836;SHT30;52595;51.608;7.216;2023-02-15T08:56:50;3.92;91.80
65836;SHT30;52595;51.608;7.216;2023-02-15T08:59:18;3.99;91.59
65836;SHT30;52595;51.608;7.216;2023-02-15T09:01:44;4.02;91.61
65836;SHT30;52595;51.608;7.216;2023-02-15T09:04:10;4.08;91.14
65836;SHT30;52595;51.608;7.216;2023-02-15T09:06:37;4.19;90.58
65836;SHT30;52595;51.608;7.216;2023-02-15T09:09:03;4.26;90.64
65836;SHT30;52595;51.608;7.216;2023-02-15T09:11:35;4.42;90.51
65836;SHT30;52595;51.608;7.216;2023-02-15T09:14:06;4.50;89.90
65836;SHT30;52595;51.608;7.216;2023-02-15T09:16:34;4.60;89.55
65836;SHT30;52595;51.608;7.216;2023-02-15T09:19:00;4.73;88.80
65836;SHT30;52595;51.608;7.216;2023-02-15T09:21:33;4.91;88.56
65836;SHT30;52595;51.608;7.216;2023-02-15T09:24:01;5.07;87.92
65836;SHT30;52595;51.608;7.216;2023-02-15T09:26:29;5.27;86.32
65836;SHT30;52595;51.608;7.216;2023-02-15T09:28:57;5.41;85.59
65836;SHT30;52595;51.608;7.216;2023-02-15T09:31:30;5.47;85.72
65836;SHT30;52595;51.608;7.216;2023-02-15T09:33:58;5.63;84.67
65836;SHT30;52595;51.608;7.216;2023-02-15T09:36:28;5.75;84.20
65836;SHT30;52595;51.608;7.216;2023-02-15T09:38:59;5.82;84.97
65836;SHT30;52595;51.608;7.216;2023-02-15T09:45:02;6.07;83.96
65836;SHT30;52595;51.608;7.216;2023-02-15T09:57:31;6.80;80.61
65836;SHT30;52595;51.608;7.216;2023-02-15T10:14:05;7.79;76.43
65836;SHT30;52595;51.608;7.216;2023-02-15T10:22:17;8.13;76.77
65836;SHT30;52595;51.608;7.216;2023-02-15T10:27:19;8.49;74.82
65836;SHT30;52595;51.608;7.216;2023-02-15T10:30:08;8.71;74.17
65836;SHT30;52595;51.608;7.216;2023-02-15T10:35:31;9.19;72.79
65836;SHT30;52595;51.608;7.216;2023-02-15T10:49:01;10.18;68.94
65836;SHT30;52595;51.608;7.216;2023-02-15T10:54:12;10.48;67.42
65836;SHT30;52595;51.608;7.216;2023-02-15T10:59:43;10.95;65.06
65836;SHT30;52595;51.608;7.216;2023-02-15T11:07:59;11.75;63.92
65836;SHT30;52595;51.608;7.216;2023-02-15T11:13:22;13.23;59.53
65836;SHT30;52595;51.608;7.216;2023-02-15T11:15:53;13.82;56.94
65836;SHT30;52595;51.608;7.216;2023-02-15T11:18:28;13.88;55.87
65836;SHT30;52595;51.608;7.216;2023-02-15T11:23:32;13.95;54.35
65836;SHT30;52595;51.608;7.216;2023-02-15T11:26:01;13.57;54.38
65836;SHT30;52595;51.608;7.216;2023-02-15T11:28:31;13.02;55.75
65836;SHT30;52595;51.608;7.216;2023-02-15T11:30:58;13.40;55.18
65836;SHT30;52595;51.608;7.216;2023-02-15T11:33:30;13.58;54.22
65836;SHT30;52595;51.608;7.216;2023-02-15T11:38:36;14.50;52.90
65836;SHT30;52595;51.608;7.216;2023-02-15T11:41:18;15.31;50.59
65836;SHT30;52595;51.608;7.216;2023-02-15T11:46:33;16.17;49.14
65836;SHT30;52595;51.608;7.216;2023-02-15T11:48:58;16.37;47.75
65836;SHT30;52595;51.608;7.216;2023-02-15T11:51:25;17.00;47.36
65836;SHT30;52595;51.608;7.216;2023-02-15T11:53:53;16.88;47.33
65836;SHT30;52595;51.608;7.216;2023-02-15T11:56:24;16.81;46.74
65836;SHT30;52595;51.608;7.216;2023-02-15T11:59:10;16.56;47.37
65836;SHT30;52595;51.608;7.216;2023-02-15T12:01:46;17.12;46.82
65836;SHT30;52595;51.608;7.216;2023-02-15T12:06:51;17.58;45.95
65836;SHT30;52595;51.608;7.216;2023-02-15T12:09:48;16.43;47.86
65836;SHT30;52595;51.608;7.216;2023-02-15T12:12:29;17.11;46.83
65836;SHT30;52595;51.608;7.216;2023-02-15T12:15:09;17.19;46.69
65836;SHT30;52595;51.608;7.216;2023-02-15T12:17:53;17.31;45.86
65836;SHT30;52595;51.608;7.216;2023-02-15T12:22:51;16.98;46.76
65836;SHT30;52595;51.608;7.216;2023-02-15T12:25:40;17.49;44.97
65836;SHT30;52595;51.608;7.216;2023-02-15T12:30:50;17.87;43.71
65836;SHT30;52595;51.608;7.216;2023-02-15T12:33:30;18.22;43.23
65836;SHT30;52595;51.608;7.216;2023-02-15T12:38:33;17.46;43.69
65836;SHT30;52595;51.608;7.216;2023-02-15T12:41:03;16.73;44.64
65836;SHT30;52595;51.608;7.216;2023-02-15T12:43:37;17.38;44.01
65836;SHT30;52595;51.608;7.216;2023-02-15T12:46:26;18.57;42.69
65836;SHT30;52595;51.608;7.216;2023-02-15T12:51:46;18.78;40.76
65836;SHT30;52595;51.608;7.216;2023-02-15T12:56:50;18.38;41.40
65836;SHT30;52595;51.608;7.216;2023-02-15T12:59:17;18.57;39.82
65836;SHT30;52595;51.608;7.216;2023-02-15T13:01:46;18.48;39.75
65836;SHT30;52595;51.608;7.216;2023-02-15T13:04:18;18.64;39.47
65836;SHT30;52595;51.608;7.216;2023-02-15T13:06:48;18.79;38.87
65836;SHT30;52595;51.608;7.216;2023-02-15T13:09:18;18.95;39.25
65836;SHT30;52595;51.608;7.216;2023-02-15T13:11:45;19.96;37.80
65836;SHT30;52595;51.608;7.216;2023-02-15T13:14:34;19.06;38.94
65836;SHT30;52595;51.608;7.216;2023-02-15T13:17:02;19.06;38.72
65836;SHT30;52595;51.608;7.216;2023-02-15T13:19:35;19.48;38.48
65836;SHT30;52595;51.608;7.216;2023-02-15T13:22:05;19.76;37.66
65836;SHT30;52595;51.608;7.216;2023-02-15T13:24:48;19.36;37.62
65836;SHT30;52595;51.608;7.216;2023-02-15T13:27:20;18.84;38.81
65836;SHT30;52595;51.608;7.216;2023-02-15T13:29:51;18.88;38.28
65836;SHT30;52595;51.608;7.216;2023-02-15T13:32:33;18.95;38.72
65836;SHT30;52595;51.608;7.216;2023-02-15T13:35:02;18.44;38.95
65836;SHT30;52595;51.608;7.216;2023-02-15T13:37:52;18.44;39.37
65836;SHT30;52595;51.608;7.216;2023-02-15T13:40:25;18.53;38.81
65836;SHT30;52595;51.608;7.216;2023-02-15T13:42:56;19.22;38.71
65836;SHT30;52595;51.608;7.216;2023-02-15T13:50:47;21.74;35.95
65836;SHT30;52595;51.608;7.216;2023-02-15T13:53:41;22.68;33.77
65836;SHT30;52595;51.608;7.216;2023-02-15T13:56:27;21.29;34.76
65836;SHT30;52595;51.608;7.216;2023-02-15T14:07:53;20.21;36.22
65836;SHT30;52595;51.608;7.216;2023-02-15T14:13:44;20.10;36.27
65836;SHT30;52595;51.608;7.216;2023-02-15T14:19:34;20.61;35.92
65836;SHT30;52595;51.608;7.216;2023-02-15T14:22:09;21.94;34.88
65836;SHT30;52595;51.608;7.216;2023-02-15T14:24:41;22.55;33.36
65836;SHT30;52595;51.608;7.216;2023-02-15T14:27:27;20.41;35.57
65836;SHT30;52595;51.608;7.216;2023-02-15T14:30:03;21.18;34.59
65836;SHT30;52595;51.608;7.216;2023-02-15T14:32:39;22.22;33.39
65836;SHT30;52595;51.608;7.216;2023-02-15T14:35:14;21.94;33.60
65836;SHT30;52595;51.608;7.216;2023-02-15T14:45:53;18.50;37.93
65836;SHT30;52595;51.608;7.216;2023-02-15T14:48:39;18.26;38.76
65836;SHT30;52595;51.608;7.216;2023-02-15T14:51:06;17.68;39.43
65836;SHT30;52595;51.608;7.216;2023-02-15T14:53:35;17.49;40.07
65836;SHT30;52595;51.608;7.216;2023-02-15T14:56:20;17.75;39.64
65836;SHT30;52595;51.608;7.216;2023-02-15T15:01:15;16.65;40.89
65836;SHT30;52595;51.608;7.216;2023-02-15T15:03:54;16.60;41.51
65836;SHT30;52595;51.608;7.216;2023-02-15T15:06:32;16.44;41.24
65836;SHT30;52595;51.608;7.216;2023-02-15T15:09:09;16.22;42.32
65836;SHT30;52595;51.608;7.216;2023-02-15T15:11:42;15.83;42.00
65836;SHT30;52595;51.608;7.216;2023-02-15T15:14:09;15.59;42.59
65836;SHT30;52595;51.608;7.216;2023-02-15T15:19:00;15.48;43.72
65836;SHT30;52595;51.608;7.216;2023-02-15T15:21:52;15.34;43.74
65836;SHT30;52595;51.608;7.216;2023-02-15T15:32:50;15.38;43.50
65836;SHT30;52595;51.608;7.216;2023-02-15T15:38:07;15.21;43.92
65836;SHT30;52595;51.608;7.216;2023-02-15T15:43:40;15.00;44.23
65836;SHT30;52595;51.608;7.216;2023-02-15T15:48:52;14.90;44.68
65836;SHT30;52595;51.608;7.216;2023-02-15T15:51:30;14.77;44.80
65836;SHT30;52595;51.608;7.216;2023-02-15T15:53:56;14.55;45.49
65836;SHT30;52595;51.608;7.216;2023-02-15T15:56:28;14.29;46.30
65836;SHT30;52595;51.608;7.216;2023-02-15T15:58:59;14.09;46.45
65836;SHT30;52595;51.608;7.216;2023-02-15T16:01:27;13.92;46.91
65836;SHT30;52595;51.608;7.216;2023-02-15T16:03:56;13.79;47.53
65836;SHT30;52595;51.608;7.216;2023-02-15T16:06:36;13.62;48.04
65836;SHT30;52595;51.608;7.216;2023-02-15T16:09:21;13.45;48.36
65836;SHT30;52595;51.608;7.216;2023-02-15T16:11:50;13.31;48.54
65836;SHT30;52595;51.608;7.216;2023-02-15T16:14:37;13.18;49.15
65836;SHT30;52595;51.608;7.216;2023-02-15T16:17:06;13.03;49.58
65836;SHT30;52595;51.608;7.216;2023-02-15T16:19:38;12.86;49.97
65836;SHT30;52595;51.608;7.216;2023-02-15T16:22:09;12.73;50.27
65836;SHT30;52595;51.608;7.216;2023-02-15T16:27:42;12.46;51.39
65836;SHT30;52595;51.608;7.216;2023-02-15T16:32:51;12.17;52.47
65836;SHT30;52595;51.608;7.216;2023-02-15T16:35:19;12.08;52.65
65836;SHT30;52595;51.608;7.216;2023-02-15T16:37:45;11.98;52.96
65836;SHT30;52595;51.608;7.216;2023-02-15T16:42:49;11.64;54.36
65836;SHT30;52595;51.608;7.216;2023-02-15T16:45:19;11.36;55.08
65836;SHT30;52595;51.608;7.216;2023-02-15T16:47:47;11.20;55.34
65836;SHT30;52595;51.608;7.216;2023-02-15T16:50:20;11.02;56.42
65836;SHT30;52595;51.608;7.216;2023-02-15T16:52:46;10.84;57.32
65836;SHT30;52595;51.608;7.216;2023-02-15T16:55:20;10.75;57.46
65836;SHT30;52595;51.608;7.216;2023-02-15T16:57:47;10.65;58.72
65836;SHT30;52595;51.608;7.216;2023-02-15T17:00:19;10.58;58.39
65836;SHT30;52595;51.608;7.216;2023-02-15T17:03:00;10.42;58.16
65836;SHT30;52595;51.608;7.216;2023-02-15T17:05:31;10.37;58.88
65836;SHT30;52595;51.608;7.216;2023-02-15T17:08:14;10.27;58.36
65836;SHT30;52595;51.608;7.216;2023-02-15T17:13:27;9.98;59.15
65836;SHT30;52595;51.608;7.216;2023-02-15T17:18:26;10.09;59.60
65836;SHT30;52595;51.608;7.216;2023-02-15T17:20:55;10.27;59.34
65836;SHT30;52595;51.608;7.216;2023-02-15T17:25:46;10.31;59.51
65836;SHT30;52595;51.608;7.216;2023-02-15T17:28:18;10.42;59.43
65836;SHT30;52595;51.608;7.216;2023-02-15T17:30:45;10.42;59.85
65836;SHT30;52595;51.608;7.216;2023-02-15T17:36:18;10.49;60.18
65836;SHT30;52595;51.608;7.216;2023-02-15T17:39:02;10.46;60.49
65836;SHT30;52595;51.608;7.216;2023-02-15T17:41:30;10.39;60.83
65836;SHT30;52595;51.608;7.216;2023-02-15T17:43:56;10.32;60.91
65836;SHT30;52595;51.608;7.216;2023-02-15T17:46:21;10.19;61.28
65836;SHT30;52595;51.608;7.216;2023-02-15T17:48:53;10.15;61.30
65836;SHT30;52595;51.608;7.216;2023-02-15T17:51:21;10.09;61.75
65836;SHT30;52595;51.608;7.216;2023-02-15T17:53:48;10.11;62.06
65836;SHT30;52595;51.608;7.216;2023-02-15T17:56:33;10.02;62.44
65836;SHT30;52595;51.608;7.216;2023-02-15T17:58:58;9.94;62.87
65836;SHT30;52595;51.608;7.216;2023-02-15T18:01:23;9.88;63.28
65836;SHT30;52595;51.608;7.216;2023-02-15T18:04:09;9.81;63.76
65836;SHT30;52595;51.608;7.216;2023-02-15T18:06:54;9.81;63.87
65836;SHT30;52595;51.608;7.216;2023-02-15T18:09:38;9.94;63.84
65836;SHT30;52595;51.608;7.216;2023-02-15T18:14:49;9.97;64.51
65836;SHT30;52595;51.608;7.216;2023-02-15T18:17:16;9.91;65.16
65836;SHT30;52595;51.608;7.216;2023-02-15T18:19:44;9.86;65.22
65836;SHT30;52595;51.608;7.216;2023-02-15T18:22:12;9.84;65.89
65836;SHT30;52595;51.608;7.216;2023-02-15T18:24:38;9.78;66.43
65836;SHT30;52595;51.608;7.216;2023-02-15T18:27:04;9.67;66.21
65836;SHT30;52595;51.608;7.216;2023-02-15T18:29:30;9.60;66.99
65836;SHT30;52595;51.608;7.216;2023-02-15T18:31:57;9.67;66.65
65836;SHT30;52595;51.608;7.216;2023-02-15T18:34:40;9.64;66.85
65836;SHT30;52595;51.608;7.216;2023-02-15T18:37:13;9.60;67.14
65836;SHT30;52595;51.608;7.216;2023-02-15T18:39:43;9.56;67.14
65836;SHT30;52595;51.608;7.216;2023-02-15T18:44:45;9.46;67.74
65836;SHT30;52595;51.608;7.216;2023-02-15T18:47:10;9.48;67.91
65836;SHT30;52595;51.608;7.216;2023-02-15T18:49:36;9.48;67.96
65836;SHT30;52595;51.608;7.216;2023-02-15T18:52:02;9.47;68.00
65836;SHT30;52595;51.608;7.216;2023-02-15T18:54:27;9.43;68.08
65836;SHT30;52595;51.608;7.216;2023-02-15T18:56:56;9.46;67.99
65836;SHT30;52595;51.608;7.216;2023-02-15T18:59:23;9.43;68.45
65836;SHT30;52595;51.608;7.216;2023-02-15T19:01:50;9.36;68.64
65836;SHT30;52595;51.608;7.216;2023-02-15T19:04:16;9.32;69.11